Lower Augusta, Pennsylvania
Current Conditions -  °F | °C
As of 11:41 PM on Thursday 18 Dec 2014 (Local Time) from KSEG Reporting Station
Overcast Overcast  
Wind Chill: 29°   Ceiling: 3000
Heat Index: 35°   Visibility: 10mi
Dew Point: 25°   Wind: 7mph
Humidity: 67%   Direction: 290°WNW
Pressure: 30.06"   Gusts: NA
Location:  40.83°N, 76.761°W
Report Text: KSEG 190441Z AUTO 29006KT 10SM OVC030 02/M04 A3006 RMK AO2 T00171039
Loading
Personal Weather Stations






























Interactive Weather Map New forecast layout! Learn more

10-Day Weather Forecast

Advertisements
Track Severe Weather on mobile